ドバイ の空港の天気 - METARとTAF

ドバイ国際空港 ( OMDB / DXB ) - アラブ首長国連邦 ドバイ
飛行場実況気象(Metar)
観測時間06/24 13:00 GST (06/24 09:00 UTC)
風向・風速西北西 6m/s
視程10km以上
天気現象
なし
気温42℃
湿度21%
気圧1000hPa
METAROMDB 240900Z 30012KT CAVOK 42/15 Q1000 NOSIG
過去の天気等 Google飛行場航空写真 Wunderground天気予報

過去48時間のMETAR

飛行場予報(TAF)
発表時間: 6/24 08:51 GST (6/24 04:51 UTC)
予報対象時間: 24日10時 GST ~ 25日16時 GST
風向・風速南西 3m/s
視程8000m
なし
24日10時 GST ~ 24日12時 GST に徐々に
風向・風速西北西 7m/s
24日22時 GST ~ 24日24時 GST に徐々に
風向・風速南 2m/s
25日12時 GST ~ 25日14時 GST に徐々に
風向・風速北北西 7m/s
TAF OMDB 240451Z 2406/2512 22005KT 8000 NSC
BECMG 2406/2408 30013KT
BECMG 2418/2420 18003KT
BECMG 2508/2510 34013KT